Terminal Aerodrome Forecast
Issued by NWS

Home | Current Version | Previous Version | Text Only | Print | Product List | Glossary On
Versions: 1 2 3 4 5 6 7 8 9 10 11 12 13 14
000
FTUS42 TJSJ 261902 AAA
TAFISX
TAF AMD
TISX 261902Z 2619/2718 15011KT P6SM FEW025
     FM262300 VRB05KT P6SM FEW021
     FM271400 15006KT P6SM FEW020=

USA.gov is the U.S. government's official web portal to all federal, state and local government web resources and services.